SHT3H EGCC-EGLL
Flight info
| Callsign | SHT3H |
|---|---|
| Flight time | 0h 31m |
| Altitude | 19000 |
| Route | DCT SANBA N859 HON HON2H |
| Aircraft | A319/M-SDE3FGHIRWY/LB1 |
Departure
| Time | 2026-05-03 22:26 |
|---|---|
| Airport | Manchester Airport (EGCC) |
Arrival
| Time | 2026-05-03 22:58 |
|---|---|
| Airport | London Heathrow Airport (EGLL) |
| Time | Latitude | Longitude | Altitude | Speed | Heading |
|---|---|---|---|---|---|
| 2026-05-03 22:04 | 53.36835 | -2.28881 | 248 ft | 0 kts | 135° |
| 2026-05-03 22:18 | 53.36839 | -2.28889 | 247 ft | 4 kts | 135° |
| 2026-05-03 22:18 | 53.36856 | -2.28916 | 247 ft | 3 kts | 136° |
| 2026-05-03 22:18 | 53.36871 | -2.28931 | 247 ft | 4 kts | 216° |
| 2026-05-03 22:18 | 53.36885 | -2.28910 | 247 ft | 1 kts | 225° |
| 2026-05-03 22:19 | 53.36868 | -2.28938 | 247 ft | 2 kts | 225° |
| 2026-05-03 22:19 | 53.36867 | -2.28940 | 247 ft | 0 kts | 225° |
| 2026-05-03 22:21 | 53.36864 | -2.28945 | 247 ft | 4 kts | 225° |
| 2026-05-03 22:21 | 53.36805 | -2.29018 | 247 ft | 16 kts | 200° |
| 2026-05-03 22:21 | 53.36712 | -2.28990 | 247 ft | 15 kts | 132° |
| 2026-05-03 22:21 | 53.36641 | -2.28888 | 247 ft | 14 kts | 153° |
| 2026-05-03 22:22 | 53.36574 | -2.28760 | 247 ft | 16 kts | 117° |
| 2026-05-03 22:22 | 53.36493 | -2.28610 | 247 ft | 19 kts | 134° |
| 2026-05-03 22:22 | 53.36424 | -2.28489 | 247 ft | 0 kts | 129° |
| 2026-05-03 22:22 | 53.36403 | -2.28480 | 247 ft | 8 kts | 167° |
| 2026-05-03 22:23 | 53.36321 | -2.28427 | 247 ft | 18 kts | 141° |
| 2026-05-03 22:23 | 53.36203 | -2.28229 | 247 ft | 30 kts | 135° |
| 2026-05-03 22:23 | 53.36099 | -2.28054 | 247 ft | 34 kts | 135° |
| 2026-05-03 22:23 | 53.35921 | -2.27844 | 247 ft | 31 kts | 179° |
| 2026-05-03 22:24 | 53.35693 | -2.27883 | 247 ft | 34 kts | 185° |
| 2026-05-03 22:24 | 53.35556 | -2.28043 | 240 ft | 26 kts | 229° |
| 2026-05-03 22:24 | 53.35385 | -2.28167 | 238 ft | 29 kts | 187° |
| 2026-05-03 22:24 | 53.35215 | -2.28338 | 233 ft | 29 kts | 230° |
| 2026-05-03 22:25 | 53.35083 | -2.28604 | 233 ft | 26 kts | 230° |
| 2026-05-03 22:25 | 53.34983 | -2.28744 | 232 ft | 18 kts | 182° |
| 2026-05-03 22:25 | 53.34881 | -2.28627 | 233 ft | 19 kts | 140° |
| 2026-05-03 22:25 | 53.34906 | -2.28466 | 237 ft | 19 kts | 50° |
| 2026-05-03 22:26 | 53.35090 | -2.28084 | 239 ft | 71 kts | 50° |
| 2026-05-03 22:26 | 53.35517 | -2.27200 | 261 ft | 124 kts | 51° |
| 2026-05-03 22:26 | 53.36152 | -2.25902 | 465 ft | 154 kts | 50° |
| 2026-05-03 22:26 | 53.36824 | -2.24529 | 1220 ft | 153 kts | 51° |
| 2026-05-03 22:27 | 53.37445 | -2.23042 | 1818 ft | 165 kts | 66° |
| 2026-05-03 22:27 | 53.37562 | -2.20992 | 2139 ft | 196 kts | 101° |
| 2026-05-03 22:27 | 53.36780 | -2.18948 | 2579 ft | 230 kts | 138° |
| 2026-05-03 22:27 | 53.35376 | -2.17383 | 3190 ft | 253 kts | 149° |
| 2026-05-03 22:28 | 53.33615 | -2.16771 | 4065 ft | 269 kts | 181° |
| 2026-05-03 22:28 | 53.31730 | -2.17107 | 4757 ft | 274 kts | 186° |
| 2026-05-03 22:28 | 53.29825 | -2.17447 | 5534 ft | 276 kts | 185° |
| 2026-05-03 22:28 | 53.27913 | -2.17769 | 6592 ft | 276 kts | 186° |
| 2026-05-03 22:29 | 53.25995 | -2.18083 | 7581 ft | 278 kts | 186° |
| 2026-05-03 22:29 | 53.24061 | -2.18391 | 8550 ft | 280 kts | 186° |
| 2026-05-03 22:29 | 53.22106 | -2.18699 | 9500 ft | 284 kts | 186° |
| 2026-05-03 22:29 | 53.20124 | -2.19010 | 10264 ft | 293 kts | 186° |
| 2026-05-03 22:30 | 53.18011 | -2.19344 | 10563 ft | 317 kts | 186° |
| 2026-05-03 22:30 | 53.15723 | -2.19527 | 10799 ft | 341 kts | 179° |
| 2026-05-03 22:30 | 53.13332 | -2.18952 | 11331 ft | 352 kts | 167° |
| 2026-05-03 22:30 | 53.10999 | -2.17598 | 12022 ft | 358 kts | 158° |
| 2026-05-03 22:31 | 53.08688 | -2.15982 | 12749 ft | 362 kts | 158° |
| 2026-05-03 22:31 | 53.06381 | -2.14381 | 13469 ft | 366 kts | 159° |
| 2026-05-03 22:31 | 53.04020 | -2.12750 | 14141 ft | 370 kts | 159° |
| 2026-05-03 22:31 | 53.01633 | -2.11108 | 14773 ft | 373 kts | 158° |
| 2026-05-03 22:32 | 52.99223 | -2.09451 | 15407 ft | 377 kts | 158° |
| 2026-05-03 22:32 | 52.96794 | -2.07779 | 16080 ft | 379 kts | 159° |
| 2026-05-03 22:32 | 52.94351 | -2.06100 | 16777 ft | 381 kts | 159° |
| 2026-05-03 22:32 | 52.91890 | -2.04412 | 17448 ft | 384 kts | 159° |
| 2026-05-03 22:33 | 52.89415 | -2.02717 | 18122 ft | 387 kts | 159° |
| 2026-05-03 22:33 | 52.86913 | -2.01005 | 18693 ft | 390 kts | 159° |
| 2026-05-03 22:33 | 52.84405 | -1.99288 | 18905 ft | 390 kts | 159° |
| 2026-05-03 22:33 | 52.81875 | -1.97558 | 18967 ft | 401 kts | 159° |
| 2026-05-03 22:34 | 52.79247 | -1.95770 | 18964 ft | 415 kts | 159° |
| 2026-05-03 22:34 | 52.76558 | -1.93942 | 18971 ft | 420 kts | 159° |
| 2026-05-03 22:34 | 52.73854 | -1.92103 | 18968 ft | 420 kts | 159° |
| 2026-05-03 22:34 | 52.71153 | -1.90269 | 18968 ft | 419 kts | 159° |
| 2026-05-03 22:35 | 52.68452 | -1.88438 | 18964 ft | 419 kts | 159° |
| 2026-05-03 22:35 | 52.65790 | -1.86635 | 18964 ft | 419 kts | 159° |
| 2026-05-03 22:35 | 52.63094 | -1.84810 | 18969 ft | 419 kts | 159° |
| 2026-05-03 22:35 | 52.60397 | -1.82984 | 18973 ft | 419 kts | 159° |
| 2026-05-03 22:36 | 52.57670 | -1.81140 | 18975 ft | 419 kts | 159° |
| 2026-05-03 22:36 | 52.55005 | -1.79339 | 18973 ft | 419 kts | 159° |
| 2026-05-03 22:36 | 52.52311 | -1.77523 | 18976 ft | 419 kts | 159° |
| 2026-05-03 22:36 | 52.49615 | -1.75711 | 18974 ft | 419 kts | 159° |
| 2026-05-03 22:37 | 52.46924 | -1.73906 | 18976 ft | 419 kts | 159° |
| 2026-05-03 22:37 | 52.44221 | -1.72093 | 18978 ft | 419 kts | 159° |
| 2026-05-03 22:37 | 52.41524 | -1.70286 | 18979 ft | 419 kts | 159° |
| 2026-05-03 22:37 | 52.38822 | -1.68481 | 18980 ft | 419 kts | 159° |
| 2026-05-03 22:38 | 52.36189 | -1.66440 | 18978 ft | 420 kts | 152° |
| 2026-05-03 22:38 | 52.33773 | -1.63705 | 18976 ft | 423 kts | 142° |
| 2026-05-03 22:38 | 52.31546 | -1.60560 | 18976 ft | 423 kts | 141° |
| 2026-05-03 22:38 | 52.29318 | -1.57402 | 18956 ft | 423 kts | 141° |
| 2026-05-03 22:39 | 52.27095 | -1.54260 | 18952 ft | 423 kts | 141° |
| 2026-05-03 22:39 | 52.24867 | -1.51126 | 18954 ft | 423 kts | 141° |
| 2026-05-03 22:39 | 52.23388 | -1.49054 | 18955 ft | 423 kts | 141° |
| 2026-05-03 22:39 | 52.21462 | -1.46357 | 18946 ft | 423 kts | 141° |
| 2026-05-03 22:40 | 52.19234 | -1.43240 | 18944 ft | 423 kts | 141° |
| 2026-05-03 22:40 | 52.16998 | -1.40111 | 18944 ft | 423 kts | 141° |
| 2026-05-03 22:40 | 52.14760 | -1.36986 | 18945 ft | 424 kts | 141° |
| 2026-05-03 22:40 | 52.12521 | -1.33863 | 18946 ft | 424 kts | 142° |
| 2026-05-03 22:41 | 52.10286 | -1.30751 | 18945 ft | 424 kts | 142° |
| 2026-05-03 22:41 | 52.08059 | -1.27624 | 18932 ft | 417 kts | 140° |
| 2026-05-03 22:41 | 52.06128 | -1.24147 | 18099 ft | 416 kts | 131° |
| 2026-05-03 22:41 | 52.04336 | -1.20513 | 16547 ft | 418 kts | 130° |
| 2026-05-03 22:42 | 52.02561 | -1.16796 | 15142 ft | 414 kts | 129° |
| 2026-05-03 22:42 | 52.00827 | -1.13110 | 13893 ft | 408 kts | 129° |
| 2026-05-03 22:42 | 51.99135 | -1.09509 | 13110 ft | 391 kts | 129° |
| 2026-05-03 22:42 | 51.97531 | -1.06116 | 12485 ft | 370 kts | 129° |
| 2026-05-03 22:43 | 51.95992 | -1.02898 | 11858 ft | 353 kts | 130° |
| 2026-05-03 22:43 | 51.94479 | -0.99767 | 11237 ft | 354 kts | 130° |
| 2026-05-03 22:43 | 51.92928 | -0.96563 | 10603 ft | 359 kts | 130° |
| 2026-05-03 22:43 | 51.91421 | -0.93450 | 10000 ft | 344 kts | 130° |
| 2026-05-03 22:44 | 51.89972 | -0.90462 | 9353 ft | 332 kts | 130° |
| 2026-05-03 22:44 | 51.88576 | -0.87593 | 9002 ft | 312 kts | 130° |
| 2026-05-03 22:44 | 51.87285 | -0.84939 | 8935 ft | 290 kts | 130° |
| 2026-05-03 22:44 | 51.86053 | -0.82404 | 8946 ft | 285 kts | 130° |
| 2026-05-03 22:45 | 51.84831 | -0.79889 | 8947 ft | 284 kts | 130° |
| 2026-05-03 22:45 | 51.83609 | -0.77374 | 8952 ft | 285 kts | 130° |
| 2026-05-03 22:45 | 51.82389 | -0.74864 | 8947 ft | 284 kts | 130° |
| 2026-05-03 22:45 | 51.81171 | -0.72357 | 8946 ft | 283 kts | 130° |
| 2026-05-03 22:46 | 51.79953 | -0.69853 | 8940 ft | 283 kts | 130° |
| 2026-05-03 22:46 | 51.78735 | -0.67353 | 8946 ft | 283 kts | 130° |
| 2026-05-03 22:46 | 51.77533 | -0.64888 | 8947 ft | 283 kts | 130° |
| 2026-05-03 22:46 | 51.76316 | -0.62394 | 8947 ft | 283 kts | 130° |
| 2026-05-03 22:47 | 51.75116 | -0.59933 | 8895 ft | 274 kts | 130° |
| 2026-05-03 22:47 | 51.73955 | -0.57551 | 8767 ft | 265 kts | 130° |
| 2026-05-03 22:47 | 51.72831 | -0.55243 | 8652 ft | 257 kts | 130° |
| 2026-05-03 22:47 | 51.71760 | -0.52995 | 8516 ft | 250 kts | 127° |
| 2026-05-03 22:48 | 51.70826 | -0.50655 | 8285 ft | 247 kts | 123° |
| 2026-05-03 22:48 | 51.69957 | -0.48267 | 8042 ft | 246 kts | 122° |
| 2026-05-03 22:48 | 51.69105 | -0.45883 | 7961 ft | 245 kts | 122° |
| 2026-05-03 22:48 | 51.68247 | -0.43500 | 7972 ft | 246 kts | 122° |
| 2026-05-03 22:49 | 51.67392 | -0.41151 | 7939 ft | 246 kts | 122° |
| 2026-05-03 22:49 | 51.66523 | -0.38785 | 7656 ft | 244 kts | 122° |
| 2026-05-03 22:49 | 51.65654 | -0.36442 | 7381 ft | 243 kts | 122° |
| 2026-05-03 22:49 | 51.64784 | -0.34119 | 7101 ft | 242 kts | 123° |
| 2026-05-03 22:50 | 51.63912 | -0.31810 | 6817 ft | 241 kts | 123° |
| 2026-05-03 22:50 | 51.63050 | -0.29506 | 6537 ft | 240 kts | 121° |
| 2026-05-03 22:50 | 51.62221 | -0.27192 | 6248 ft | 239 kts | 121° |
| 2026-05-03 22:50 | 51.61403 | -0.24907 | 5955 ft | 238 kts | 121° |
| 2026-05-03 22:51 | 51.60581 | -0.22622 | 5651 ft | 237 kts | 121° |
| 2026-05-03 22:51 | 51.59753 | -0.20332 | 5345 ft | 235 kts | 121° |
| 2026-05-03 22:51 | 51.58929 | -0.18058 | 5042 ft | 235 kts | 121° |
| 2026-05-03 22:51 | 51.58032 | -0.15887 | 4751 ft | 231 kts | 136° |
| 2026-05-03 22:52 | 51.56694 | -0.14706 | 4634 ft | 216 kts | 169° |
| 2026-05-03 22:52 | 51.55236 | -0.14548 | 4489 ft | 205 kts | 180° |
| 2026-05-03 22:52 | 51.53841 | -0.14570 | 4342 ft | 195 kts | 181° |
| 2026-05-03 22:52 | 51.52496 | -0.14611 | 4084 ft | 192 kts | 181° |
| 2026-05-03 22:53 | 51.51169 | -0.14654 | 3970 ft | 191 kts | 181° |
| 2026-05-03 22:53 | 51.49850 | -0.14804 | 3683 ft | 191 kts | 195° |
| 2026-05-03 22:53 | 51.48697 | -0.15815 | 3431 ft | 191 kts | 223° |
| 2026-05-03 22:53 | 51.47963 | -0.17579 | 3238 ft | 192 kts | 251° |
| 2026-05-03 22:54 | 51.47800 | -0.19675 | 3023 ft | 192 kts | 270° |
| 2026-05-03 22:54 | 51.47802 | -0.21814 | 2764 ft | 192 kts | 270° |
| 2026-05-03 22:54 | 51.47801 | -0.23952 | 2508 ft | 190 kts | 270° |
| 2026-05-03 22:54 | 51.47799 | -0.26069 | 2252 ft | 189 kts | 270° |
| 2026-05-03 22:55 | 51.47797 | -0.28156 | 2043 ft | 184 kts | 270° |
| 2026-05-03 22:55 | 51.47794 | -0.30184 | 1751 ft | 178 kts | 270° |
| 2026-05-03 22:55 | 51.47791 | -0.32102 | 1513 ft | 165 kts | 270° |
| 2026-05-03 22:55 | 51.47790 | -0.33823 | 1280 ft | 144 kts | 270° |
| 2026-05-03 22:56 | 51.47787 | -0.35347 | 969 ft | 134 kts | 269° |
| 2026-05-03 22:56 | 51.47784 | -0.36808 | 790 ft | 129 kts | 269° |
| 2026-05-03 22:56 | 51.47778 | -0.38239 | 671 ft | 128 kts | 269° |
| 2026-05-03 22:56 | 51.47770 | -0.39657 | 554 ft | 126 kts | 268° |
| 2026-05-03 22:57 | 51.47769 | -0.41059 | 401 ft | 125 kts | 269° |
| 2026-05-03 22:57 | 51.47768 | -0.42459 | 255 ft | 126 kts | 269° |
| 2026-05-03 22:57 | 51.47765 | -0.43856 | 106 ft | 124 kts | 268° |
| 2026-05-03 22:57 | 51.47763 | -0.45047 | 90 ft | 86 kts | 270° |
| 2026-05-03 22:58 | 51.47757 | -0.45736 | 84 ft | 41 kts | 258° |
| 2026-05-03 22:58 | 51.47623 | -0.46003 | 89 ft | 16 kts | 220° |
| 2026-05-03 22:58 | 51.47592 | -0.46045 | 86 ft | 0 kts | 221° |
| 2026-05-03 22:59 | 51.47592 | -0.46050 | 88 ft | 0 kts | 250° |
| 2026-05-03 22:59 | 51.47591 | -0.46144 | 86 ft | 19 kts | 269° |
| 2026-05-03 22:59 | 51.47594 | -0.46385 | 86 ft | 24 kts | 271° |
| 2026-05-03 23:00 | 51.47590 | -0.46611 | 86 ft | 27 kts | 270° |
| 2026-05-03 23:00 | 51.47584 | -0.46875 | 86 ft | 23 kts | 262° |
| 2026-05-03 23:00 | 51.47581 | -0.47128 | 86 ft | 27 kts | 270° |
| 2026-05-03 23:00 | 51.47581 | -0.47445 | 86 ft | 31 kts | 270° |
| 2026-05-03 23:01 | 51.47580 | -0.47817 | 86 ft | 35 kts | 269° |
| 2026-05-03 23:01 | 51.47577 | -0.48226 | 86 ft | 37 kts | 269° |
| 2026-05-03 23:01 | 51.47538 | -0.48476 | 90 ft | 17 kts | 195° |
| 2026-05-03 23:01 | 51.47486 | -0.48636 | 89 ft | 20 kts | 271° |
| 2026-05-03 23:02 | 51.47482 | -0.48817 | 87 ft | 12 kts | 245° |
| 2026-05-03 23:02 | 51.47409 | -0.48829 | 86 ft | 4 kts | 180° |
| 2026-05-03 23:02 | 51.47403 | -0.48829 | 86 ft | 0 kts | 181° |